Time;durP1;ratioP1;P1;durP2;ratioP2;P2;SDS_P1;SDS_P2;PMS_P1;PMS_P2;Temp;Humidity;BMP_temperature;BMP_pressure;BME280_temperature;BME280_humidity;BME280_pressure;Samples;Min_cycle;Max_cycle;Signal;HPM_P1;HPM_P2
2021/12/24 00:01:38;;;;;;;241.55;56.65;;;;;;;6.42;100.00;100397.97;4960094;28;20033;-68
2021/12/24 00:04:04;;;;;;;232.63;64.25;;;;;;;6.39;100.00;100408.84;4950455;28;20733;-67
2021/12/24 00:06:30;;;;;;;187.18;41.95;;;;;;;6.47;100.00;100398.50;4973326;28;20026;-69
2021/12/24 00:08:55;;;;;;;180.07;48.70;;;;;;;6.45;100.00;100405.75;4960030;28;20034;-71
2021/12/24 00:11:21;;;;;;;179.60;43.63;;;;;;;6.44;100.00;100404.06;4976589;28;20033;-69
2021/12/24 00:13:49;;;;;;;196.70;48.85;;;;;;;6.57;100.00;100402.25;4979264;28;20026;-68
2021/12/24 00:16:27;;;;;;;206.00;49.80;;;;;;;6.34;100.00;100378.94;4980175;28;20022;-70
2021/12/24 00:19:12;;;;;;;167.50;42.50;;;;;;;6.45;100.00;100398.59;4980315;28;20033;-70
2021/12/24 00:22:19;;;;;;;190.82;48.25;;;;;;;6.48;100.00;100397.56;4943068;28;20062;-69
2021/12/24 00:35:35;;;;;;;125.65;32.22;;;;;;;6.48;100.00;100384.22;4972786;28;20117;-71
2021/12/24 00:38:06;;;;;;;172.95;42.05;;;;;;;6.60;100.00;100391.38;4976112;28;20034;-72
2021/12/24 00:40:34;;;;;;;156.23;38.50;;;;;;;6.55;100.00;100390.81;4977454;28;20059;-69
2021/12/24 00:42:59;;;;;;;165.05;45.97;;;;;;;6.56;100.00;100387.19;4955644;28;20030;-72
2021/12/24 00:45:39;;;;;;;172.20;50.63;;;;;;;6.65;100.00;100380.38;4961823;28;20383;-69
2021/12/24 00:48:06;;;;;;;181.75;53.42;;;;;;;6.72;100.00;100384.34;4962327;28;20489;-69
2021/12/24 00:50:49;;;;;;;166.02;46.15;;;;;;;6.62;100.00;100382.41;4973816;28;20461;-71
2021/12/24 00:56:00;;;;;;;140.13;38.35;;;;;;;6.64;100.00;100375.16;4972619;28;20130;-72
2021/12/24 00:58:25;;;;;;;144.52;42.08;;;;;;;6.66;100.00;100382.06;4979650;28;20042;-70
2021/12/24 01:00:51;;;;;;;141.63;39.30;;;;;;;6.63;100.00;100365.44;4977499;28;20092;-71
2021/12/24 01:03:16;;;;;;;126.20;39.83;;;;;;;6.64;100.00;100376.00;4978545;28;20034;-71
2021/12/24 01:05:43;;;;;;;141.57;39.50;;;;;;;6.72;100.00;100376.31;4958462;28;20030;-72
2021/12/24 01:08:09;;;;;;;111.28;34.25;;;;;;;6.72;100.00;100378.16;4971541;28;20090;-71
2021/12/24 01:10:39;;;;;;;139.35;43.20;;;;;;;6.77;100.00;100380.50;4954306;28;20049;-72
2021/12/24 01:13:05;;;;;;;130.27;39.00;;;;;;;6.79;100.00;100366.06;4959061;28;20057;-71
2021/12/24 01:15:33;;;;;;;98.20;30.42;;;;;;;6.73;100.00;100355.84;4975241;28;20172;-72
2021/12/24 01:18:10;;;;;;;138.82;43.17;;;;;;;6.79;100.00;100354.56;4975859;28;20121;-70
2021/12/24 01:20:47;;;;;;;108.18;35.70;;;;;;;6.87;100.00;100371.75;4975336;28;20056;-71
2021/12/24 01:23:37;;;;;;;79.38;28.02;;;;;;;6.83;100.00;100367.56;4976175;28;20122;-72
2021/12/24 01:26:08;;;;;;;120.40;45.20;;;;;;;7.00;100.00;100360.22;4974849;28;20039;-69
2021/12/24 01:29:05;;;;;;;131.07;45.83;;;;;;;6.99;100.00;100359.34;4973545;28;20038;-70
2021/12/24 01:44:55;;;;;;;145.25;40.47;;;;;;;7.07;100.00;100366.81;4972426;28;20040;-72
2021/12/24 01:47:21;;;;;;;139.32;43.03;;;;;;;6.94;100.00;100347.31;4961922;28;20422;-71
2021/12/24 01:49:46;;;;;;;137.63;41.90;;;;;;;7.18;100.00;100371.38;4956249;28;20030;-71
2021/12/24 01:52:12;;;;;;;133.32;38.50;;;;;;;7.20;100.00;100365.00;4957792;28;20363;-72
2021/12/24 01:54:39;;;;;;;126.90;39.45;;;;;;;7.12;100.00;100363.84;4942376;28;20390;-72
2021/12/24 01:57:04;;;;;;;120.25;36.00;;;;;;;7.19;100.00;100365.94;4972505;28;20038;-70
2021/12/24 01:59:30;;;;;;;120.32;37.40;;;;;;;7.23;100.00;100363.06;4973686;28;20144;-71
2021/12/24 02:01:55;;;;;;;108.22;32.92;;;;;;;7.09;100.00;100348.88;4975536;28;20030;-72
2021/12/24 02:04:21;;;;;;;144.82;39.67;;;;;;;7.18;100.00;100360.72;4963528;28;20033;-72
2021/12/24 02:06:47;;;;;;;117.95;36.72;;;;;;;7.24;100.00;100362.94;4978435;28;20487;-72
2021/12/24 02:09:13;;;;;;;133.98;38.95;;;;;;;7.21;100.00;100360.50;4973976;28;20144;-72
2021/12/24 02:11:39;;;;;;;134.40;36.47;;;;;;;7.29;100.00;100360.81;4944114;28;20069;-72
2021/12/24 02:14:06;;;;;;;160.38;44.80;;;;;;;7.26;100.00;100342.31;4963342;28;20030;-71
2021/12/24 02:16:47;;;;;;;134.23;41.45;;;;;;;7.35;100.00;100348.81;4959750;28;20030;-71
2021/12/24 02:29:54;;;;;;;174.07;52.65;;;;;;;7.62;100.00;100347.78;4976617;28;20077;-71
2021/12/24 02:32:19;;;;;;;170.95;45.08;;;;;;;7.62;100.00;100356.66;4977833;28;20030;-71
2021/12/24 02:34:44;;;;;;;114.50;31.88;;;;;;;7.68;100.00;100357.19;4959271;28;20141;-72
2021/12/24 02:37:10;;;;;;;139.25;39.17;;;;;;;7.69;100.00;100348.16;4977770;28;20061;-71
2021/12/24 02:39:36;;;;;;;141.63;40.25;;;;;;;7.73;100.00;100346.97;4978841;28;20426;-71
2021/12/24 02:42:16;;;;;;;148.48;40.40;;;;;;;7.69;100.00;100333.00;4958456;28;20077;-72
2021/12/24 02:44:42;;;;;;;154.43;42.13;;;;;;;7.82;100.00;100343.63;4978975;28;20030;-72
2021/12/24 02:47:12;;;;;;;138.23;40.30;;;;;;;7.85;100.00;100345.22;4976976;28;21862;-72
2021/12/24 02:54:58;;;;;;;108.43;32.42;;;;;;;7.95;100.00;100338.22;4962727;28;20045;-72
2021/12/24 02:57:27;;;;;;;110.35;31.52;;;;;;;7.94;100.00;100325.81;4978760;28;20034;-71
2021/12/24 03:00:02;;;;;;;97.05;27.33;;;;;;;8.01;100.00;100334.22;4978003;28;21133;-73
2021/12/24 03:02:30;;;;;;;96.70;29.20;;;;;;;8.11;100.00;100332.59;4961941;28;20077;-72
2021/12/24 03:04:56;;;;;;;96.63;30.27;;;;;;;8.01;100.00;100321.75;4978903;28;20041;-71
2021/12/24 03:07:21;;;;;;;93.90;27.58;;;;;;;8.03;100.00;100330.50;4976030;28;20026;-70
2021/12/24 03:09:46;;;;;;;126.00;38.53;;;;;;;8.17;100.00;100324.09;4975985;28;20052;-71
2021/12/24 03:12:12;;;;;;;85.75;28.85;;;;;;;8.06;100.00;100316.03;4979997;28;20023;-72
2021/12/24 03:14:37;;;;;;;72.70;23.27;;;;;;;8.08;100.00;100327.47;4982829;28;20038;-74
2021/12/24 03:17:08;;;;;;;83.80;25.02;;;;;;;8.21;100.00;100327.38;4955539;28;20034;-73
2021/12/24 03:19:34;;;;;;;104.13;33.72;;;;;;;8.23;100.00;100330.81;4978266;28;20118;-71
2021/12/24 03:22:15;;;;;;;84.18;26.88;;;;;;;8.26;100.00;100335.91;4976571;28;20042;-74
2021/12/24 03:24:40;;;;;;;69.05;22.40;;;;;;;8.13;100.00;100330.66;4978753;28;20435;-74
2021/12/24 03:27:08;;;;;;;72.70;23.50;;;;;;;8.26;100.00;100330.56;4959806;28;20022;-74
2021/12/24 03:29:34;;;;;;;88.10;29.95;;;;;;;8.20;100.00;100331.91;4956748;28;20026;-72
2021/12/24 03:31:59;;;;;;;66.07;23.23;;;;;;;8.22;100.00;100337.94;4975724;28;20021;-73
2021/12/24 03:34:25;;;;;;;73.95;22.42;;;;;;;8.28;100.00;100347.34;4963472;28;20034;-72
2021/12/24 03:36:51;;;;;;;64.45;21.15;;;;;;;8.35;100.00;100342.38;4978919;28;20040;-73
2021/12/24 03:39:17;;;;;;;70.20;21.38;;;;;;;8.33;100.00;100341.66;4979729;28;20149;-73
2021/12/24 03:41:43;;;;;;;64.10;21.35;;;;;;;8.30;100.00;100333.84;4960077;28;20109;-70
2021/12/24 03:44:11;;;;;;;82.68;26.23;;;;;;;8.48;100.00;100339.63;4973288;28;20053;-71
2021/12/24 03:46:50;;;;;;;71.38;24.38;;;;;;;8.27;100.00;100326.94;4980500;28;20026;-72
2021/12/24 03:52:03;;;;;;;77.30;26.60;;;;;;;8.33;100.00;100341.66;4975836;28;20033;-72
2021/12/24 03:57:12;;;;;;;58.22;21.77;;;;;;;8.34;100.00;100340.66;4976978;28;20454;-72
2021/12/24 03:59:38;;;;;;;66.05;24.73;;;;;;;8.29;100.00;100338.38;4959677;28;20364;-71
2021/12/24 04:02:03;;;;;;;47.40;18.38;;;;;;;8.29;100.00;100333.00;4979178;28;20104;-73
2021/12/24 04:04:29;;;;;;;47.45;17.58;;;;;;;8.43;100.00;100353.34;4977460;28;20106;-73
2021/12/24 04:06:54;;;;;;;49.13;19.67;;;;;;;8.45;100.00;100351.41;4974285;28;20057;-73
2021/12/24 04:09:21;;;;;;;57.60;21.30;;;;;;;8.43;100.00;100349.81;4975749;28;20395;-72
2021/12/24 04:11:47;;;;;;;54.40;18.20;;;;;;;8.31;100.00;100335.56;4975229;28;22350;-75
2021/12/24 04:14:12;;;;;;;49.60;18.95;;;;;;;8.41;100.00;100342.75;4956883;28;20034;-74
2021/12/24 04:16:37;;;;;;;71.50;25.45;;;;;;;8.26;100.00;100328.72;4957269;28;20034;-70
2021/12/24 04:24:52;;;;;;;38.72;15.13;;;;;;;8.21;100.00;100343.44;4976619;28;20097;-75
2021/12/24 04:27:19;;;;;;;48.03;19.35;;;;;;;8.32;100.00;100348.81;4968337;28;20128;-72
2021/12/24 04:29:44;;;;;;;47.15;16.40;;;;;;;8.23;100.00;100347.69;4961422;28;20030;-74
2021/12/24 04:32:14;;;;;;;46.10;14.57;;;;;;;8.18;100.00;100347.19;4957772;28;20340;-75
2021/12/24 04:34:44;;;;;;;45.40;14.95;;;;;;;8.25;100.00;100364.47;4961713;28;20030;-74
2021/12/24 04:50:58;;;;;;;44.60;15.85;;;;;;;8.35;100.00;100367.28;4963108;28;20092;-71
2021/12/24 04:51:10;;;;;;;34.95;12.93;;;;;;;8.29;100.00;100341.03;4975647;28;20033;-71
2021/12/24 05:04:35;;;;;;;27.23;12.60;;;;;;;8.33;100.00;100334.50;4974072;28;20458;-74
2021/12/24 05:07:24;;;;;;;36.63;15.73;;;;;;;8.35;100.00;100332.50;4983135;28;20057;-72
2021/12/24 05:09:49;;;;;;;39.15;11.75;;;;;;;8.25;100.00;100332.38;4978160;28;20762;-71
2021/12/24 05:12:15;;;;;;;30.95;11.95;;;;;;;8.07;100.00;100315.94;4978423;28;20031;-71
2021/12/24 05:14:40;;;;;;;39.20;12.75;;;;;;;8.19;100.00;100335.53;4976166;28;20044;-70
2021/12/24 05:17:29;;;;;;;31.10;10.10;;;;;;;8.17;100.00;100340.16;4958378;28;20030;-72
2021/12/24 05:22:38;;;;;;;31.35;11.93;;;;;;;8.16;100.00;100346.47;4977948;28;20065;-72
2021/12/24 05:25:04;;;;;;;29.30;12.05;;;;;;;8.10;100.00;100347.75;4958709;28;20491;-74
2021/12/24 05:27:29;;;;;;;39.88;13.52;;;;;;;8.07;100.00;100348.03;4951789;28;20018;-71
2021/12/24 05:29:55;;;;;;;29.73;9.57;;;;;;;8.04;100.00;100350.91;4974412;28;20030;-72
2021/12/24 05:32:21;;;;;;;31.48;11.73;;;;;;;8.09;100.00;100363.94;4954491;28;20099;-74
2021/12/24 05:34:46;;;;;;;32.85;13.18;;;;;;;8.20;100.00;100358.63;4959144;28;20426;-72
2021/12/24 05:37:11;;;;;;;35.58;11.57;;;;;;;8.01;100.00;100352.94;4955277;28;20516;-70
2021/12/24 05:39:37;;;;;;;37.25;15.48;;;;;;;8.17;100.00;100353.53;4979123;28;20030;-71
2021/12/24 05:42:03;;;;;;;54.28;17.25;;;;;;;8.33;100.00;100355.00;4979567;28;20756;-72
2021/12/24 05:44:29;;;;;;;35.88;13.38;;;;;;;8.30;100.00;100356.13;4980438;28;20030;-72
2021/12/24 05:46:54;;;;;;;32.45;13.63;;;;;;;8.10;100.00;100355.78;4978065;28;20022;-73
2021/12/24 05:49:19;;;;;;;38.97;14.25;;;;;;;8.03;100.00;100365.25;4978635;28;20534;-74
2021/12/24 05:51:45;;;;;;;27.23;9.48;;;;;;;8.02;100.00;100351.97;4977321;28;20490;-74
2021/12/24 05:54:11;;;;;;;31.05;10.60;;;;;;;7.93;100.00;100374.91;4965164;28;20057;-74
2021/12/24 05:56:37;;;;;;;29.30;9.98;;;;;;;7.92;100.00;100370.53;4959408;28;20161;-74
2021/12/24 05:59:03;;;;;;;23.65;9.30;;;;;;;7.96;100.00;100377.38;4966524;28;20394;-74
2021/12/24 06:01:28;;;;;;;36.72;11.35;;;;;;;8.04;100.00;100377.66;4956432;28;20105;-72
2021/12/24 06:03:53;;;;;;;27.98;10.02;;;;;;;8.00;100.00;100383.31;4978637;28;20030;-74
2021/12/24 06:06:19;;;;;;;35.88;10.18;;;;;;;7.97;100.00;100379.06;4978662;28;20037;-74
2021/12/24 06:08:44;;;;;;;26.23;10.88;;;;;;;7.87;100.00;100370.88;4979166;28;20038;-74
2021/12/24 06:11:09;;;;;;;33.85;10.85;;;;;;;7.96;100.00;100390.72;4961372;28;20061;-74
2021/12/24 06:13:36;;;;;;;42.28;12.30;;;;;;;7.88;100.00;100367.25;4949781;28;20493;-72
2021/12/24 06:16:01;;;;;;;29.15;11.90;;;;;;;7.85;100.00;100377.28;4976480;28;20029;-74
2021/12/24 06:18:29;;;;;;;44.25;14.52;;;;;;;7.88;100.00;100371.72;4959911;28;20034;-72
2021/12/24 06:20:57;;;;;;;36.92;11.25;;;;;;;7.72;100.00;100362.19;4962280;28;20030;-73
2021/12/24 06:23:24;;;;;;;34.88;10.75;;;;;;;7.81;100.00;100377.50;4978097;28;20137;-72
2021/12/24 06:25:52;;;;;;;30.85;11.50;;;;;;;7.81;100.00;100384.69;4963811;28;20030;-74
2021/12/24 06:28:17;;;;;;;25.85;10.40;;;;;;;7.99;100.00;100379.81;4980462;28;20026;-73
2021/12/24 06:30:43;;;;;;;44.47;16.38;;;;;;;7.91;100.00;100366.16;4980030;28;20092;-71
2021/12/24 06:33:09;;;;;;;35.58;11.48;;;;;;;8.03;100.00;100372.41;4979272;28;20033;-71
2021/12/24 06:35:34;;;;;;;25.10;8.98;;;;;;;8.03;100.00;100377.75;4979020;28;20022;-74
2021/12/24 06:38:00;;;;;;;31.65;11.30;;;;;;;7.90;100.00;100385.84;4961209;28;20046;-72
2021/12/24 06:40:25;;;;;;;27.95;9.52;;;;;;;7.87;100.00;100376.22;4978918;28;20388;-73
2021/12/24 06:42:51;;;;;;;28.75;9.95;;;;;;;7.67;100.00;100356.31;4978633;28;20037;-73
2021/12/24 06:45:21;;;;;;;36.22;12.38;;;;;;;7.78;100.00;100364.41;4979853;28;20037;-72
2021/12/24 06:47:47;;;;;;;30.20;12.40;;;;;;;7.71;100.00;100355.13;4980797;28;20152;-72
2021/12/24 06:50:12;;;;;;;30.17;10.32;;;;;;;7.92;100.00;100362.50;4976844;28;20030;-73
2021/12/24 06:52:37;;;;;;;27.58;10.60;;;;;;;7.87;100.00;100370.00;4977235;28;20026;-73
2021/12/24 06:55:03;;;;;;;30.95;12.32;;;;;;;7.88;100.00;100364.56;4979331;28;20077;-72
2021/12/24 06:57:29;;;;;;;40.90;12.48;;;;;;;7.84;100.00;100356.88;4976922;28;20030;-71
2021/12/24 06:59:54;;;;;;;24.23;9.48;;;;;;;7.83;100.00;100350.69;4973672;28;20034;-73
2021/12/24 07:02:19;;;;;;;36.30;13.05;;;;;;;7.94;100.00;100364.13;4978687;28;20042;-70
2021/12/24 07:04:44;;;;;;;19.80;7.93;;;;;;;7.97;100.00;100373.72;4977495;28;20041;-74
2021/12/24 07:07:10;;;;;;;28.10;10.43;;;;;;;7.96;100.00;100364.84;4978278;28;20022;-72
2021/12/24 07:09:41;;;;;;;23.90;9.05;;;;;;;7.79;100.00;100370.59;4975181;28;20061;-72
2021/12/24 07:12:11;;;;;;;32.17;10.27;;;;;;;7.99;100.00;100373.59;4975690;28;20019;-72
2021/12/24 07:14:37;;;;;;;26.23;9.02;;;;;;;7.77;100.00;100352.00;4979486;28;20030;-73
2021/12/24 07:17:03;;;;;;;28.25;10.40;;;;;;;7.95;100.00;100372.97;4980142;28;20034;-73
2021/12/24 07:19:28;;;;;;;26.48;10.50;;;;;;;7.73;100.00;100365.69;4947002;28;20073;-73
2021/12/24 07:21:54;;;;;;;30.15;12.02;;;;;;;7.80;100.00;100374.97;4976841;28;20022;-71
2021/12/24 07:24:19;;;;;;;41.67;13.07;;;;;;;7.89;100.00;100376.09;4976647;28;20042;-74
2021/12/24 07:26:45;;;;;;;23.85;9.05;;;;;;;7.79;100.00;100370.59;4972548;28;20154;-72
2021/12/24 07:29:10;;;;;;;34.97;10.73;;;;;;;7.88;100.00;100374.41;4975659;28;20061;-72
2021/12/24 07:31:36;;;;;;;37.55;11.10;;;;;;;7.83;100.00;100365.84;4972419;28;20036;-73
2021/12/24 07:34:01;;;;;;;30.35;9.32;;;;;;;7.83;100.00;100368.53;4976642;28;20040;-74
2021/12/24 07:36:26;;;;;;;36.08;11.95;;;;;;;7.89;100.00;100370.75;4971256;28;20046;-72
2021/12/24 07:38:52;;;;;;;30.38;11.65;;;;;;;7.77;100.00;100378.72;4975170;28;20038;-72
2021/12/24 07:41:18;;;;;;;27.02;10.60;;;;;;;7.90;100.00;100380.47;4975223;28;20041;-73
2021/12/24 07:43:43;;;;;;;36.55;12.55;;;;;;;7.74;100.00;100380.75;4971725;28;20109;-72
2021/12/24 07:46:09;;;;;;;34.30;11.60;;;;;;;7.77;100.00;100377.88;4973133;28;20605;-73
2021/12/24 07:48:43;;;;;;;25.52;11.10;;;;;;;7.79;100.00;100391.97;4955190;28;20582;-70
2021/12/24 07:53:34;;;;;;;31.58;9.95;;;;;;;7.77;100.00;100396.56;4974894;28;20639;-73
2021/12/24 07:55:59;;;;;;;24.83;9.98;;;;;;;7.58;100.00;100384.56;4977226;28;20493;-73
2021/12/24 07:58:24;;;;;;;29.60;9.57;;;;;;;7.68;100.00;100398.09;4976614;28;20038;-73
2021/12/24 08:00:51;;;;;;;36.72;10.77;;;;;;;7.73;100.00;100412.00;4981203;28;20034;-75
2021/12/24 08:03:17;;;;;;;26.20;9.63;;;;;;;7.77;100.00;100410.81;4955471;28;20030;-74
2021/12/24 08:05:43;;;;;;;24.55;9.52;;;;;;;7.88;100.00;100406.47;4961242;28;20037;-75
2021/12/24 08:08:10;;;;;;;26.02;10.13;;;;;;;7.71;100.00;100402.34;4957297;28;20030;-73
2021/12/24 08:10:35;;;;;;;31.85;11.70;;;;;;;7.76;100.00;100402.88;4977932;28;20089;-74
2021/12/24 08:13:04;;;;;;;31.40;10.30;;;;;;;7.76;100.00;100406.41;4978166;28;20773;-74
2021/12/24 08:15:30;;;;;;;31.08;10.00;;;;;;;7.76;100.00;100395.72;4974728;28;20062;-73
2021/12/24 08:17:56;;;;;;;27.50;8.68;;;;;;;7.64;100.00;100383.25;4973607;28;20105;-75
2021/12/24 08:20:24;;;;;;;29.50;10.43;;;;;;;7.73;100.00;100387.94;4953373;28;20034;-75
2021/12/24 08:22:51;;;;;;;34.30;12.20;;;;;;;7.70;100.00;100374.78;4979346;28;20118;-73
2021/12/24 08:25:17;;;;;;;33.47;11.68;;;;;;;7.69;100.00;100385.56;4972922;28;20030;-74
2021/12/24 08:27:43;;;;;;;44.45;12.98;;;;;;;7.79;100.00;100374.13;4959583;28;20030;-73
2021/12/24 08:30:09;;;;;;;33.08;8.95;;;;;;;7.91;100.00;100377.72;4956475;28;20152;-74
2021/12/24 08:32:38;;;;;;;23.95;10.75;;;;;;;7.89;100.00;100384.13;4956772;28;20133;-74
2021/12/24 08:35:05;;;;;;;25.95;9.25;;;;;;;7.88;100.00;100385.97;4973162;28;20029;-75
2021/12/24 08:37:31;;;;;;;27.98;9.63;;;;;;;7.75;100.00;100371.78;4959552;28;20087;-75
2021/12/24 08:39:56;;;;;;;37.97;11.05;;;;;;;7.83;100.00;100392.59;4975409;28;20026;-72
2021/12/24 08:42:21;;;;;;;32.05;10.15;;;;;;;7.84;100.00;100384.47;4976248;28;20118;-74
2021/12/24 08:44:47;;;;;;;28.27;10.00;;;;;;;7.93;100.00;100385.59;4978226;28;20076;-73
2021/12/24 08:47:12;;;;;;;26.48;9.20;;;;;;;7.92;100.00;100383.91;4973601;28;20041;-75
2021/12/24 08:49:37;;;;;;;19.88;8.88;;;;;;;8.05;100.00;100400.75;4976130;28;20026;-73
2021/12/24 08:52:04;;;;;;;28.45;8.98;;;;;;;7.94;100.00;100400.69;4959289;28;20034;-75
2021/12/24 08:54:29;;;;;;;22.38;8.57;;;;;;;7.88;100.00;100377.06;4962954;28;20073;-74
2021/12/24 08:56:55;;;;;;;25.80;9.10;;;;;;;7.96;100.00;100394.25;4981577;28;20021;-76
2021/12/24 08:59:23;;;;;;;21.70;7.13;;;;;;;7.94;100.00;100385.50;4962445;28;20038;-72
2021/12/24 09:01:48;;;;;;;25.13;10.38;;;;;;;8.00;100.00;100386.00;4962489;28;20113;-74
2021/12/24 09:04:13;;;;;;;21.60;8.50;;;;;;;7.93;100.00;100378.47;4976755;28;20253;-75
2021/12/24 09:06:39;;;;;;;28.55;9.43;;;;;;;7.91;100.00;100384.88;4962689;28;20069;-74
2021/12/24 09:09:06;;;;;;;17.83;6.47;;;;;;;7.94;100.00;100381.97;4958876;28;20030;-74
2021/12/24 09:11:38;;;;;;;32.88;9.00;;;;;;;7.92;100.00;100382.09;4944760;28;20448;-73
2021/12/24 09:14:03;;;;;;;23.80;7.82;;;;;;;7.99;100.00;100382.47;4963836;28;20023;-74
2021/12/24 09:16:29;;;;;;;26.27;7.80;;;;;;;8.05;100.00;100381.16;4968171;28;20030;-73
2021/12/24 09:19:01;;;;;;;27.35;9.15;;;;;;;8.11;100.00;100370.84;4980087;28;20129;-72
2021/12/24 09:21:27;;;;;;;38.10;11.77;;;;;;;8.04;100.00;100376.78;4966905;28;20037;-72
2021/12/24 09:23:54;;;;;;;35.05;10.65;;;;;;;7.95;100.00;100355.09;4967724;28;20034;-72
2021/12/24 09:26:26;;;;;;;25.85;9.50;;;;;;;8.13;100.00;100378.78;4978522;28;20080;-71
2021/12/24 09:28:52;;;;;;;24.65;9.57;;;;;;;8.02;100.00;100376.03;4979631;28;20034;-71
2021/12/24 09:31:18;;;;;;;26.42;8.95;;;;;;;8.02;100.00;100351.97;4978428;28;20542;-72
2021/12/24 09:33:43;;;;;;;31.65;10.77;;;;;;;8.06;100.00;100373.03;4982591;28;20050;-72
2021/12/24 09:36:09;;;;;;;30.17;10.45;;;;;;;8.03;100.00;100354.56;4968214;28;20754;-71
2021/12/24 09:38:35;;;;;;;24.23;8.68;;;;;;;8.13;100.00;100373.44;4980942;28;22021;-73
2021/12/24 09:41:00;;;;;;;35.42;11.73;;;;;;;8.20;100.00;100369.34;4981440;28;20030;-70
2021/12/24 09:43:26;;;;;;;29.77;10.90;;;;;;;8.21;100.00;100360.31;4965818;28;20743;-71
2021/12/24 09:45:51;;;;;;;17.83;7.65;;;;;;;8.17;100.00;100371.38;4982621;28;20028;-72
2021/12/24 09:48:17;;;;;;;23.48;9.45;;;;;;;8.18;100.00;100373.06;4966217;28;20026;-71
2021/12/24 09:50:43;;;;;;;28.35;10.57;;;;;;;8.24;100.00;100370.78;4964772;28;20068;-70
2021/12/24 09:53:08;;;;;;;42.85;9.63;;;;;;;8.24;100.00;100353.91;4961404;28;20152;-71
2021/12/24 09:55:34;;;;;;;37.67;13.13;;;;;;;8.19;100.00;100370.31;4971291;28;20109;-71
2021/12/24 09:57:59;;;;;;;35.40;12.52;;;;;;;8.19;100.00;100348.03;4967145;28;20037;-70
2021/12/24 10:00:26;;;;;;;29.15;9.73;;;;;;;8.09;100.00;100366.59;4986946;28;20045;-71
2021/12/24 10:02:54;;;;;;;28.17;10.13;;;;;;;8.26;100.00;100376.88;4964045;28;20510;-69
2021/12/24 10:05:30;;;;;;;31.48;10.68;;;;;;;8.24;100.00;100372.63;4978603;28;20090;-72
2021/12/24 10:08:22;;;;;;;33.97;10.57;;;;;;;8.11;100.00;100368.19;4982654;28;20034;-71
2021/12/24 10:10:52;;;;;;;31.05;11.75;;;;;;;8.17;100.00;100372.25;4951581;28;20046;-71
2021/12/24 10:13:36;;;;;;;26.17;8.77;;;;;;;8.11;100.00;100368.19;4959439;28;20613;-73
2021/12/24 10:16:08;;;;;;;;;;;;;;;8.18;100.00;100375.75;4976435;28;20173;-71
2021/12/24 10:18:42;;;;;;;31.45;8.98;;;;;;;8.24;100.00;100373.47;4977052;28;19917;-72
2021/12/24 10:21:14;;;;;;;;;;;;;;;8.34;100.00;100372.78;4979444;28;20022;-70
2021/12/24 10:23:44;;;;;;;35.78;10.65;;;;;;;8.25;100.00;100375.16;4980099;28;19926;-72
2021/12/24 10:26:14;;;;;;;30.42;8.82;;;;;;;8.14;100.00;100379.63;4957057;28;20395;-73
2021/12/24 10:28:51;;;;;;;24.92;8.90;;;;;;;8.08;100.00;100367.56;4981608;28;20042;-74
2021/12/24 10:31:18;;;;;;;31.60;10.02;;;;;;;8.34;100.00;100375.44;4963251;28;20049;-72
2021/12/24 10:34:02;;;;;;;27.42;8.15;;;;;;;8.27;100.00;100375.06;4980589;28;20469;-73
2021/12/24 10:36:28;;;;;;;23.23;8.25;;;;;;;8.25;100.00;100369.81;4964583;28;20431;-72
2021/12/24 10:38:56;;;;;;;30.65;10.80;;;;;;;8.31;100.00;100363.16;4960875;28;20062;-71
2021/12/24 10:41:24;;;;;;;36.38;10.05;;;;;;;8.26;100.00;100350.13;4977140;28;20375;-72
2021/12/24 10:43:50;;;;;;;28.85;8.70;;;;;;;8.29;100.00;100364.25;4962304;28;20034;-73
2021/12/24 10:46:22;;;;;;;27.75;9.52;;;;;;;8.25;100.00;100369.81;4960700;28;20088;-72
2021/12/24 10:49:16;;;;;;;24.58;8.20;;;;;;;8.33;100.00;100363.91;4979986;28;20035;-72
2021/12/24 10:52:16;;;;;;;37.03;11.90;;;;;;;8.35;100.00;100355.75;4979309;28;20049;-71
2021/12/24 10:55:04;;;;;;;32.50;9.82;;;;;;;8.40;100.00;100351.75;4982170;28;20054;-72
2021/12/24 10:57:34;;;;;;;24.75;8.90;;;;;;;8.34;100.00;100356.72;4982167;28;20025;-74
2021/12/24 11:00:07;;;;;;;33.53;11.73;;;;;;;8.29;100.00;100349.06;4966897;28;20019;-72
2021/12/24 11:02:35;;;;;;;40.10;11.85;;;;;;;8.27;100.00;100345.66;4983258;28;20022;-71
2021/12/24 11:05:01;;;;;;;27.88;9.65;;;;;;;8.38;100.00;100369.75;4983239;28;20089;-71
2021/12/24 11:07:42;;;;;;;30.75;9.32;;;;;;;8.31;100.00;100370.31;4982309;28;20030;-73
2021/12/24 11:10:12;;;;;;;28.98;9.50;;;;;;;8.37;100.00;100362.69;4962422;28;20023;-73
2021/12/24 11:12:39;;;;;;;32.63;10.20;;;;;;;8.34;100.00;100370.09;4982505;28;20022;-72
2021/12/24 11:15:31;;;;;;;26.38;10.52;;;;;;;8.38;100.00;100355.53;4980905;28;20026;-69
2021/12/24 11:18:19;;;;;;;28.77;9.60;;;;;;;8.40;100.00;100366.97;4987280;28;20076;-71
2021/12/24 11:20:49;;;;;;;28.45;11.38;;;;;;;8.31;100.00;100362.31;4983584;28;20101;-72
2021/12/24 11:23:16;;;;;;;31.77;9.95;;;;;;;8.20;100.00;100360.44;4966787;28;20430;-73
2021/12/24 11:25:45;;;;;;;29.70;11.07;;;;;;;8.28;100.00;100358.06;4982267;28;20027;-72
2021/12/24 11:28:12;;;;;;;35.50;10.60;;;;;;;8.19;100.00;100364.97;4966515;28;20716;-73
2021/12/24 11:30:40;;;;;;;25.77;9.88;;;;;;;8.20;100.00;100364.00;4967356;28;20031;-72
2021/12/24 11:33:06;;;;;;;38.53;12.95;;;;;;;8.24;100.00;100367.28;4970884;28;20029;-72
2021/12/24 11:35:32;;;;;;;29.50;10.07;;;;;;;8.13;100.00;100348.50;4981079;28;20026;-73
2021/12/24 11:37:59;;;;;;;36.90;12.07;;;;;;;8.23;100.00;100350.34;4963001;28;20489;-71
2021/12/24 11:40:25;;;;;;;28.50;11.43;;;;;;;8.32;100.00;100358.66;4982920;28;20038;-73
2021/12/24 11:42:55;;;;;;;29.90;10.63;;;;;;;8.31;100.00;100351.59;4963781;28;20375;-72
2021/12/24 11:45:22;;;;;;;34.95;11.23;;;;;;;8.39;100.00;100342.03;4963307;28;20022;-71
2021/12/24 11:47:48;;;;;;;34.72;9.65;;;;;;;8.46;100.00;100341.56;4969714;28;20110;-74
2021/12/24 11:50:13;;;;;;;30.50;9.93;;;;;;;8.47;100.00;100336.09;4965486;28;20034;-74
2021/12/24 11:52:40;;;;;;;28.42;10.55;;;;;;;8.60;100.00;100340.53;4967010;28;20030;-73
2021/12/24 11:55:06;;;;;;;40.15;15.05;;;;;;;8.56;100.00;100339.91;4979236;28;20026;-70
2021/12/24 11:57:32;;;;;;;25.60;9.90;;;;;;;8.43;100.00;100326.59;4960649;28;20406;-72
2021/12/24 11:59:57;;;;;;;28.88;9.55;;;;;;;8.42;100.00;100324.91;4978490;28;20031;-71
2021/12/24 12:02:47;;;;;;;31.70;11.68;;;;;;;8.55;100.00;100339.03;4965380;28;20018;-71
2021/12/24 12:05:19;;;;;;;37.13;12.43;;;;;;;8.51;100.00;100334.91;4959903;28;20058;-72
2021/12/24 12:07:45;;;;;;;34.20;12.27;;;;;;;8.60;100.00;100329.81;4974375;28;20497;-72
2021/12/24 12:10:12;;;;;;;26.83;10.25;;;;;;;8.63;100.00;100341.13;4963973;28;20038;-72
2021/12/24 12:12:40;;;;;;;34.83;11.18;;;;;;;8.71;100.00;100348.56;4978532;28;20026;-73
2021/12/24 12:15:26;;;;;;;33.30;11.13;;;;;;;8.70;100.00;100341.53;4960796;28;20034;-71
2021/12/24 12:17:53;;;;;;;23.33;10.68;;;;;;;8.64;100.00;100340.16;4976717;28;20026;-74
2021/12/24 12:20:55;;;;;;;34.03;11.70;;;;;;;8.71;100.00;100343.22;4962151;28;20109;-73
2021/12/24 12:26:41;;;;;;;35.97;11.43;;;;;;;8.76;100.00;100345.53;4926147;28;20050;-72
2021/12/24 12:29:30;;;;;;;24.13;10.13;;;;;;;8.60;100.00;100351.22;4945306;28;20446;-74
2021/12/24 12:32:12;;;;;;;28.38;9.48;;;;;;;8.48;100.00;100331.59;4956608;28;20025;-72
2021/12/24 12:34:43;;;;;;;32.35;10.95;;;;;;;8.66;100.00;100348.91;4980023;28;20378;-72
2021/12/24 12:37:19;;;;;;;28.52;10.27;;;;;;;8.62;100.00;100347.44;4977840;28;20244;-73
2021/12/24 12:39:47;;;;;;;28.27;10.48;;;;;;;8.54;100.00;100342.69;4980791;28;20034;-74
2021/12/24 12:42:16;;;;;;;34.10;9.95;;;;;;;8.43;100.00;100333.75;4964354;28;20383;-73